Flag, Arkansas
Current Conditions -  °F | °C
As of 8:55 AM on Monday 24 Nov 2014 (Local Time) from KCCA Reporting Station
Clear Clear  
Wind Chill: 48°   Ceiling: Unl
Heat Index: 48°   Visibility: 10mi
Dew Point: 32°   Wind: 3mph
Humidity: 54%   Direction: 270°W
Pressure: 29.86"   Gusts: NA
Location:  35.8223°N, 92.5849°W
Report Text: KCCA 241455Z AUTO 27003KT 10SM CLR 09/00 A2986 RMK AO2
Loading
Personal Weather Stations






























Interactive Weather Map New forecast layout! Learn more

10-Day Weather Forecast

Advertisements
Track Severe Weather on mobile